Time;durP1;ratioP1;P1;durP2;ratioP2;P2;SDS_P1;SDS_P2;PMS_P1;PMS_P2;Temp;Humidity;BMP_temperature;BMP_pressure;BME280_temperature;BME280_humidity;BME280_pressure;Samples;Min_cycle;Max_cycle;Signal;HPM_P1;HPM_P2
2023/04/29 00:00:07;;;;;;;1999.90;999.90;;;16.10;99.90;;;;;;5053746;28;20153;-79
2023/04/29 00:02:33;;;;;;;1999.90;999.90;;;16.10;99.90;;;;;;5052575;28;20037;-78
2023/04/29 00:04:59;;;;;;;1999.90;999.90;;;16.20;99.90;;;;;;5053552;28;20021;-72
2023/04/29 00:07:25;;;;;;;1999.90;999.90;;;16.20;99.90;;;;;;5053108;28;20021;-72
2023/04/29 00:09:50;;;;;;;1999.90;999.90;;;16.20;99.90;;;;;;5053585;28;20028;-79
2023/04/29 00:12:17;;;;;;;1999.90;999.90;;;16.20;99.90;;;;;;5035466;28;20543;-79
2023/04/29 00:14:42;;;;;;;1999.90;999.90;;;16.30;99.90;;;;;;5053165;28;20147;-78
2023/04/29 00:17:08;;;;;;;1999.90;999.90;;;16.30;99.90;;;;;;5053421;28;20104;-79
2023/04/29 00:19:34;;;;;;;1999.90;999.90;;;16.30;99.90;;;;;;5053380;28;20118;-72
2023/04/29 00:22:00;;;;;;;1999.90;999.90;;;16.30;99.90;;;;;;5053035;28;20472;-72
2023/04/29 00:24:26;;;;;;;1999.90;999.90;;;16.30;99.90;;;;;;5053294;28;20021;-79
2023/04/29 00:26:52;;;;;;;1999.90;999.90;;;16.40;99.90;;;;;;5035288;28;20017;-79
2023/04/29 00:29:17;;;;;;;1999.90;999.90;;;16.40;99.90;;;;;;5052826;28;20369;-72
2023/04/29 00:31:43;;;;;;;1999.90;999.90;;;16.40;99.90;;;;;;5053310;28;20032;-72
2023/04/29 00:34:09;;;;;;;1999.90;999.90;;;16.40;99.90;;;;;;5053147;28;20025;-72
2023/04/29 00:36:35;;;;;;;1999.90;999.90;;;16.50;99.90;;;;;;5053220;28;20443;-78
2023/04/29 00:39:02;;;;;;;1999.90;999.90;;;16.40;99.90;;;;;;5052869;28;20395;-79
2023/04/29 00:41:30;;;;;;;1999.90;999.90;;;16.50;99.90;;;;;;5052819;28;20056;-79
2023/04/29 00:43:56;;;;;;;1999.90;999.90;;;16.40;99.90;;;;;;5052782;28;20013;-72
2023/04/29 00:46:21;;;;;;;1999.90;999.90;;;16.50;99.90;;;;;;5052794;28;20028;-72
2023/04/29 00:48:48;;;;;;;1999.90;999.90;;;16.50;99.90;;;;;;5052442;28;20096;-72
2023/04/29 00:51:15;;;;;;;1999.90;999.90;;;16.50;99.90;;;;;;5052726;28;20533;-79
2023/04/29 00:53:42;;;;;;;1999.90;999.90;;;16.50;99.90;;;;;;5052681;28;20025;-79
2023/04/29 00:56:09;;;;;;;1999.90;999.90;;;16.50;99.90;;;;;;5053282;28;20037;-78
2023/04/29 00:58:35;;;;;;;1999.90;999.90;;;16.50;99.90;;;;;;5052729;28;20555;-72
2023/04/29 01:01:02;;;;;;;1999.90;999.90;;;16.50;99.90;;;;;;5052813;28;20032;-72
2023/04/29 01:03:29;;;;;;;1999.90;999.90;;;16.50;99.90;;;;;;5051897;28;20040;-72
2023/04/29 01:06:18;;;;;;;1999.90;999.90;;;16.60;99.90;;;;;;5053155;28;20025;-79
2023/04/29 01:09:23;;;;;;;1999.90;999.90;;;16.50;99.90;;;;;;5052453;28;20036;-72
2023/04/29 01:11:58;;;;;;;1999.90;999.90;;;16.60;99.90;;;;;;5052577;28;20057;-72
2023/04/29 01:14:24;;;;;;;1999.90;999.90;;;16.60;99.90;;;;;;5053114;28;20021;-72
2023/04/29 01:16:59;;;;;;;1999.90;999.90;;;16.60;99.90;;;;;;5052601;28;20560;-79
2023/04/29 01:19:39;;;;;;;1999.90;999.90;;;16.60;99.90;;;;;;5051634;28;20025;-73
2023/04/29 01:22:05;;;;;;;1999.90;999.90;;;16.60;99.90;;;;;;5053012;28;20029;-79
2023/04/29 01:24:31;;;;;;;1999.90;999.90;;;16.60;99.90;;;;;;5052347;28;20025;-72
2023/04/29 01:27:09;;;;;;;1999.90;999.90;;;16.60;99.90;;;;;;5051999;28;20484;-72
2023/04/29 01:29:55;;;;;;;1999.90;999.90;;;16.60;99.90;;;;;;5052436;28;20025;-79
2023/04/29 01:32:35;;;;;;;1999.90;999.90;;;16.60;99.90;;;;;;5052614;28;20078;-79
2023/04/29 01:35:15;;;;;;;1999.90;999.90;;;16.60;99.90;;;;;;5052615;28;20170;-79
2023/04/29 01:37:59;;;;;;;1999.90;999.90;;;16.60;99.90;;;;;;5052994;28;20025;-72
2023/04/29 01:40:55;;;;;;;1999.90;999.90;;;16.60;99.90;;;;;;5053597;28;20029;-79
2023/04/29 01:43:24;;;;;;;1999.90;999.90;;;16.60;99.90;;;;;;5056162;28;20452;-72
2023/04/29 01:45:52;;;;;;;1999.90;999.90;;;16.60;99.90;;;;;;5056036;28;20025;-79
2023/04/29 01:48:18;;;;;;;1999.90;999.90;;;16.60;99.90;;;;;;5055964;28;20052;-72
2023/04/29 01:50:45;;;;;;;1999.90;999.90;;;16.60;99.90;;;;;;5055844;28;20420;-72
2023/04/29 01:53:10;;;;;;;1999.90;999.90;;;16.60;99.90;;;;;;5055834;28;20017;-72
2023/04/29 01:55:36;;;;;;;1999.90;999.90;;;16.60;99.90;;;;;;5055864;28;20154;-79
2023/04/29 01:58:02;;;;;;;1999.90;999.90;;;16.50;99.90;;;;;;5055918;28;20032;-79
2023/04/29 02:00:27;;;;;;;1999.90;999.90;;;16.50;99.90;;;;;;5055594;28;20536;-72
2023/04/29 02:02:53;;;;;;;1999.90;999.90;;;16.50;99.90;;;;;;5055729;28;20028;-72
2023/04/29 02:05:19;;;;;;;1999.90;999.90;;;16.50;99.90;;;;;;5054883;28;20412;-72
2023/04/29 02:07:44;;;;;;;1999.90;999.90;;;16.50;99.90;;;;;;5055702;28;20055;-79
2023/04/29 02:10:10;;;;;;;1999.90;999.90;;;16.50;99.90;;;;;;5037708;28;20029;-79
2023/04/29 02:12:36;;;;;;;1999.90;999.90;;;16.50;99.90;;;;;;5055536;28;20027;-78
2023/04/29 02:15:02;;;;;;;1999.90;999.90;;;16.50;99.90;;;;;;5055532;28;20029;-73
2023/04/29 02:17:28;;;;;;;1999.90;999.90;;;16.50;99.90;;;;;;5055542;28;20029;-78
2023/04/29 02:19:53;;;;;;;1999.90;999.90;;;16.50;99.90;;;;;;5055672;28;20033;-72
2023/04/29 02:22:20;;;;;;;1999.90;999.90;;;16.40;99.90;;;;;;5054954;28;20021;-78
2023/04/29 02:24:45;;;;;;;1999.90;999.90;;;16.40;99.90;;;;;;5055423;28;20029;-78
2023/04/29 02:27:11;;;;;;;1999.90;999.90;;;16.40;99.90;;;;;;5055816;28;20024;-78
2023/04/29 02:29:36;;;;;;;1999.90;999.90;;;16.40;99.90;;;;;;5055279;28;20545;-72
2023/04/29 02:32:02;;;;;;;1999.90;999.90;;;16.40;99.90;;;;;;5055357;28;20037;-72
2023/04/29 02:34:28;;;;;;;1999.90;999.90;;;16.40;99.90;;;;;;5055076;28;20423;-79
2023/04/29 02:36:54;;;;;;;1999.90;999.90;;;16.40;99.90;;;;;;5055211;28;20045;-79
2023/04/29 02:39:19;;;;;;;1999.90;999.90;;;16.40;99.90;;;;;;5055315;28;20025;-79
2023/04/29 02:41:45;;;;;;;1999.90;999.90;;;16.40;99.90;;;;;;5055126;28;20025;-72
2023/04/29 02:44:11;;;;;;;1999.90;999.90;;;16.40;99.90;;;;;;5054909;28;20384;-72
2023/04/29 02:46:38;;;;;;;1999.90;999.90;;;16.40;99.90;;;;;;5055071;28;20025;-78
2023/04/29 02:49:04;;;;;;;1999.90;999.90;;;16.40;99.90;;;;;;5054658;28;20021;-79
2023/04/29 02:51:30;;;;;;;1999.90;999.90;;;16.40;99.90;;;;;;5054880;28;20041;-78
2023/04/29 02:53:56;;;;;;;1999.90;999.90;;;16.40;99.90;;;;;;5054813;28;20055;-72
2023/04/29 02:56:22;;;;;;;1999.90;999.90;;;16.40;99.90;;;;;;5054904;28;20021;-72
2023/04/29 02:58:48;;;;;;;1999.90;999.90;;;16.40;99.90;;;;;;5054721;28;20499;-79
2023/04/29 03:01:13;;;;;;;1999.90;999.90;;;16.30;99.90;;;;;;5054052;28;20361;-79
2023/04/29 03:03:39;;;;;;;1999.90;999.90;;;16.30;99.90;;;;;;5054610;28;20033;-79
2023/04/29 03:06:05;;;;;;;1999.90;999.90;;;16.30;99.90;;;;;;5053719;28;20029;-79
2023/04/29 03:08:31;;;;;;;1999.90;999.90;;;16.30;99.90;;;;;;5054592;28;20025;-72
2023/04/29 03:10:57;;;;;;;1999.90;999.90;;;16.30;99.90;;;;;;5054076;28;20116;-72
2023/04/29 03:13:23;;;;;;;1999.90;999.90;;;16.30;99.90;;;;;;5054544;28;20035;-79
2023/04/29 03:15:49;;;;;;;1999.90;999.90;;;16.30;99.90;;;;;;5054620;28;20025;-72
2023/04/29 03:18:14;;;;;;;1999.90;999.90;;;16.40;99.90;;;;;;5054508;28;20025;-78
2023/04/29 03:20:40;;;;;;;1999.90;999.90;;;16.30;99.90;;;;;;5054258;28;20028;-72
2023/04/29 03:23:05;;;;;;;1999.90;999.90;;;16.30;99.90;;;;;;5054295;28;20025;-72
2023/04/29 03:25:31;;;;;;;1999.90;999.90;;;16.30;99.90;;;;;;5054288;28;20025;-78
2023/04/29 03:27:57;;;;;;;1999.90;999.90;;;16.30;99.90;;;;;;5054743;28;20039;-72
2023/04/29 03:30:22;;;;;;;1999.90;999.90;;;16.20;99.90;;;;;;5053933;28;20083;-72
2023/04/29 03:32:48;;;;;;;1999.90;999.90;;;16.20;99.90;;;;;;5054286;28;20107;-79
2023/04/29 03:35:14;;;;;;;1999.90;999.90;;;16.20;99.90;;;;;;5054108;28;20033;-72
2023/04/29 03:37:39;;;;;;;1999.90;999.90;;;16.20;99.90;;;;;;5054269;28;20422;-79
2023/04/29 03:40:06;;;;;;;1999.90;999.90;;;16.20;99.90;;;;;;5053894;28;20029;-79
2023/04/29 03:42:31;;;;;;;1999.90;999.90;;;16.20;99.90;;;;;;5054352;28;20075;-79
2023/04/29 03:44:57;;;;;;;1999.90;999.90;;;16.10;99.90;;;;;;5053953;28;20387;-79
2023/04/29 03:47:23;;;;;;;1999.90;999.90;;;16.10;99.90;;;;;;5053480;28;20496;-79
2023/04/29 03:49:48;;;;;;;1999.90;999.90;;;16.10;99.90;;;;;;5054240;28;20368;-79
2023/04/29 03:52:14;;;;;;;1999.90;999.90;;;16.10;99.90;;;;;;5035678;28;20134;-79
2023/04/29 03:54:40;;;;;;;1999.90;999.90;;;16.10;99.90;;;;;;5054022;28;20025;-78
2023/04/29 03:57:06;;;;;;;1999.90;999.90;;;16.10;99.90;;;;;;5053772;28;20071;-79
2023/04/29 03:59:32;;;;;;;1999.90;999.90;;;16.10;99.90;;;;;;5035660;28;20037;-72
2023/04/29 04:01:57;;;;;;;1999.90;999.90;;;16.10;99.90;;;;;;5053403;28;20025;-72
2023/04/29 04:04:23;;;;;;;1999.90;999.90;;;16.10;99.90;;;;;;5053126;28;20396;-79
2023/04/29 04:06:50;;;;;;;1999.90;999.90;;;16.10;99.90;;;;;;5052826;28;20480;-79
2023/04/29 04:09:17;;;;;;;1999.90;999.90;;;16.10;99.90;;;;;;5035433;28;20024;-72
2023/04/29 04:11:43;;;;;;;1999.90;999.90;;;16.10;99.90;;;;;;5053122;28;20024;-79
2023/04/29 04:14:09;;;;;;;1999.90;999.90;;;16.10;99.90;;;;;;5053408;28;20028;-77
2023/04/29 04:16:35;;;;;;;1999.90;999.90;;;16.00;99.90;;;;;;5053565;28;20123;-72
2023/04/29 04:19:01;;;;;;;1999.90;999.90;;;16.10;99.90;;;;;;5034519;28;20057;-78
2023/04/29 04:21:27;;;;;;;1999.90;999.90;;;16.10;99.90;;;;;;5053284;28;20025;-79
2023/04/29 04:23:53;;;;;;;1999.90;999.90;;;16.10;99.90;;;;;;5053105;28;20021;-79
2023/04/29 04:26:19;;;;;;;1999.90;999.90;;;16.10;99.90;;;;;;5053214;28;20040;-72
2023/04/29 04:28:45;;;;;;;1999.90;999.90;;;16.10;99.90;;;;;;5053184;28;20104;-72
2023/04/29 04:31:13;;;;;;;1999.90;999.90;;;16.10;99.90;;;;;;5053322;28;20025;-72
2023/04/29 04:33:42;;;;;;;1999.90;999.90;;;16.10;99.90;;;;;;5053486;28;20021;-72
2023/04/29 04:36:07;;;;;;;1999.90;999.90;;;16.00;99.90;;;;;;5053040;28;20025;-72
2023/04/29 04:38:33;;;;;;;1999.90;999.90;;;16.00;99.90;;;;;;5052786;28;20502;-72
2023/04/29 04:40:59;;;;;;;1999.90;999.90;;;16.00;99.90;;;;;;5052677;28;20033;-72
2023/04/29 04:43:25;;;;;;;1999.90;999.90;;;16.00;99.90;;;;;;5053686;28;20033;-72
2023/04/29 04:45:50;;;;;;;1999.90;999.90;;;16.00;99.90;;;;;;5052833;28;20039;-79
2023/04/29 04:48:16;;;;;;;1999.90;999.90;;;16.00;99.90;;;;;;5052702;28;20478;-72
2023/04/29 04:50:42;;;;;;;1999.90;999.90;;;16.00;99.90;;;;;;5052474;28;20021;-72
2023/04/29 04:53:08;;;;;;;1999.90;999.90;;;15.90;99.90;;;;;;5051592;28;20094;-79
2023/04/29 04:55:33;;;;;;;1999.90;999.90;;;15.90;99.90;;;;;;5051526;28;20112;-72
2023/04/29 04:57:59;;;;;;;1999.90;999.90;;;15.90;99.90;;;;;;5053051;28;20100;-79
2023/04/29 05:00:25;;;;;;;1999.90;999.90;;;15.90;99.90;;;;;;5052530;28;20079;-72
2023/04/29 05:02:50;;;;;;;1999.90;999.90;;;15.90;99.90;;;;;;5053057;28;20037;-79
2023/04/29 05:05:16;;;;;;;1999.90;999.90;;;15.90;99.90;;;;;;5052833;28;20097;-72
2023/04/29 05:07:42;;;;;;;1999.90;999.90;;;15.80;99.90;;;;;;5051748;28;20025;-72
2023/04/29 05:10:11;;;;;;;1999.90;999.90;;;15.90;99.90;;;;;;5052601;28;20021;-79
2023/04/29 05:12:37;;;;;;;1999.90;999.90;;;15.80;99.90;;;;;;5052281;28;20029;-78
2023/04/29 05:15:03;;;;;;;1999.90;999.90;;;15.80;99.90;;;;;;5035264;28;20032;-72
2023/04/29 05:17:29;;;;;;;1999.90;999.90;;;15.80;99.90;;;;;;5056737;28;20037;-72
2023/04/29 05:19:55;;;;;;;1999.90;999.90;;;15.70;99.90;;;;;;5056755;28;20094;-72
2023/04/29 05:22:20;;;;;;;1999.90;999.90;;;15.70;99.90;;;;;;5056477;28;20108;-78
2023/04/29 05:24:50;;;;;;;1999.90;999.90;;;15.70;99.90;;;;;;5056591;28;20535;-79
2023/04/29 05:27:16;;;;;;;1999.90;999.90;;;15.70;99.90;;;;;;5056418;28;20029;-72
2023/04/29 05:29:41;;;;;;;1999.90;999.90;;;15.70;99.90;;;;;;5056931;28;20025;-72
2023/04/29 05:32:07;;;;;;;1999.90;999.90;;;15.70;99.90;;;;;;5056323;28;20078;-72
2023/04/29 05:34:32;;;;;;;1999.90;999.90;;;15.70;99.90;;;;;;5056746;28;20037;-72
2023/04/29 05:36:58;;;;;;;1999.90;999.90;;;15.70;99.90;;;;;;5056100;28;20402;-79
2023/04/29 05:39:25;;;;;;;1999.90;999.90;;;15.80;99.90;;;;;;5056229;28;20021;-72
2023/04/29 05:41:51;;;;;;;1999.90;999.90;;;15.70;99.90;;;;;;5056345;28;20040;-79
2023/04/29 05:44:16;;;;;;;1999.90;999.90;;;15.70;99.90;;;;;;5056284;28;20017;-72
2023/04/29 05:46:42;;;;;;;1999.90;999.90;;;15.70;99.90;;;;;;5056055;28;20078;-72
2023/04/29 05:49:07;;;;;;;1999.90;999.90;;;15.70;99.90;;;;;;5055971;28;20021;-72
2023/04/29 05:51:33;;;;;;;1999.90;999.90;;;15.70;99.90;;;;;;5055896;28;20094;-77
2023/04/29 05:53:59;;;;;;;1999.90;999.90;;;15.70;99.90;;;;;;5056209;28;20029;-79
2023/04/29 05:56:25;;;;;;;1999.90;999.90;;;15.70;99.90;;;;;;5055993;28;20225;-72
2023/04/29 05:58:51;;;;;;;1999.90;999.90;;;15.60;99.90;;;;;;5056062;28;20029;-72
2023/04/29 06:01:16;;;;;;;1999.90;999.90;;;15.50;99.90;;;;;;5055435;28;20028;-78
2023/04/29 06:03:42;;;;;;;1999.90;999.90;;;15.50;99.90;;;;;;5037678;28;20025;-72
2023/04/29 06:06:09;;;;;;;1999.90;999.90;;;15.50;99.90;;;;;;5055936;28;20023;-72
2023/04/29 06:08:35;;;;;;;1999.90;999.90;;;15.50;99.90;;;;;;5054732;28;20092;-78
2023/04/29 06:11:02;;;;;;;1999.90;999.90;;;15.40;99.90;;;;;;5055913;28;20052;-72
2023/04/29 06:13:29;;;;;;;1999.90;999.90;;;15.50;99.90;;;;;;5055333;28;20051;-72
2023/04/29 06:15:54;;;;;;;1999.90;999.90;;;15.50;99.90;;;;;;5055500;28;20033;-72
2023/04/29 06:18:20;;;;;;;1999.90;999.90;;;15.50;99.90;;;;;;5055689;28;20068;-79
2023/04/29 06:20:46;;;;;;;1999.90;999.90;;;15.50;99.90;;;;;;5037729;28;20086;-79
2023/04/29 06:23:11;;;;;;;1999.90;999.90;;;15.40;99.90;;;;;;5037413;28;20025;-72
2023/04/29 06:25:37;;;;;;;1999.90;999.90;;;15.50;99.90;;;;;;5054811;28;20029;-78
2023/04/29 06:28:03;;;;;;;1999.90;999.90;;;15.60;99.90;;;;;;5055369;28;20021;-79
2023/04/29 06:30:28;;;;;;;1999.90;999.90;;;15.60;99.90;;;;;;5055418;28;20025;-79
2023/04/29 06:32:54;;;;;;;1999.90;999.90;;;15.60;99.90;;;;;;5054854;28;20033;-72
2023/04/29 06:35:20;;;;;;;1999.90;999.90;;;15.70;99.90;;;;;;5055785;28;20114;-72
2023/04/29 06:37:46;;;;;;;1999.90;999.90;;;15.80;99.90;;;;;;5054924;28;20395;-72
2023/04/29 06:40:12;;;;;;;1999.90;999.90;;;15.80;99.90;;;;;;5055085;28;20091;-72
2023/04/29 06:42:38;;;;;;;1999.90;999.90;;;15.70;99.90;;;;;;5054744;28;20499;-72
2023/04/29 06:45:04;;;;;;;1999.90;999.90;;;15.80;99.90;;;;;;5055195;28;20036;-79
2023/04/29 06:47:29;;;;;;;1999.90;999.90;;;15.80;99.90;;;;;;5036776;28;20017;-79
2023/04/29 06:49:55;;;;;;;1999.90;999.90;;;15.80;99.90;;;;;;5054753;28;20083;-72
2023/04/29 06:52:21;;;;;;;1999.90;999.90;;;15.90;99.90;;;;;;5054594;28;20045;-72
2023/04/29 06:54:46;;;;;;;1999.90;999.90;;;15.80;99.90;;;;;;5055029;28;20029;-79
2023/04/29 06:57:12;;;;;;;1999.90;999.90;;;15.70;99.90;;;;;;5037181;28;20025;-79
2023/04/29 06:59:38;;;;;;;1999.90;999.90;;;15.90;99.90;;;;;;5036758;28;20032;-72
2023/04/29 07:02:03;;;;;;;1999.90;999.90;;;15.90;99.90;;;;;;5054523;28;20078;-72
2023/04/29 07:04:29;;;;;;;1999.90;999.90;;;15.90;99.90;;;;;;5054447;28;20480;-72
2023/04/29 07:06:55;;;;;;;1999.90;999.90;;;15.90;99.90;;;;;;5054947;28;20187;-78
2023/04/29 07:09:22;;;;;;;1999.90;999.90;;;15.90;99.90;;;;;;5053759;28;20025;-72
2023/04/29 07:11:48;;;;;;;1999.90;999.90;;;15.90;99.90;;;;;;5054540;28;20021;-79
2023/04/29 07:14:14;;;;;;;1999.90;999.90;;;15.90;99.90;;;;;;5054317;28;20039;-72
2023/04/29 07:16:39;;;;;;;1999.90;999.90;;;16.10;99.90;;;;;;5054176;28;20032;-79
2023/04/29 07:19:05;;;;;;;1999.90;999.90;;;16.00;99.90;;;;;;5053086;28;20107;-72
2023/04/29 07:21:31;;;;;;;1999.90;999.90;;;16.10;99.90;;;;;;5054442;28;20480;-79
2023/04/29 07:23:59;;;;;;;1999.90;999.90;;;16.00;99.90;;;;;;5054168;28;20021;-79
2023/04/29 07:26:25;;;;;;;1999.90;999.90;;;16.10;99.90;;;;;;5054123;28;20013;-79
2023/04/29 07:28:50;;;;;;;1999.90;999.90;;;16.20;99.90;;;;;;5054013;28;20503;-72
2023/04/29 07:31:16;;;;;;;1999.90;999.90;;;16.20;99.90;;;;;;5054262;28;20029;-72
2023/04/29 07:33:44;;;;;;;1999.90;999.90;;;16.20;99.90;;;;;;5054873;28;20029;-79
2023/04/29 07:36:10;;;;;;;1999.90;999.90;;;16.10;99.90;;;;;;5054438;28;20025;-72
2023/04/29 07:38:35;;;;;;;1999.90;999.90;;;16.10;99.90;;;;;;5052843;28;20079;-78
2023/04/29 07:41:03;;;;;;;1999.90;999.90;;;16.20;99.90;;;;;;5054514;28;20024;-73
2023/04/29 07:43:29;;;;;;;1999.90;999.90;;;16.30;99.90;;;;;;5053808;28;20429;-72
2023/04/29 07:45:54;;;;;;;1999.90;999.90;;;16.40;99.90;;;;;;5071567;28;20102;-79
2023/04/29 07:48:20;;;;;;;1999.90;999.90;;;16.30;99.90;;;;;;5062969;28;20026;-79
2023/04/29 07:50:46;;;;;;;1999.90;999.90;;;16.40;99.90;;;;;;5053402;28;20143;-73
2023/04/29 07:53:11;;;;;;;1999.90;999.90;;;16.70;99.90;;;;;;5053611;28;20447;-79
2023/04/29 07:55:37;;;;;;;1999.90;999.90;;;16.80;99.90;;;;;;5053471;28;20561;-72
2023/04/29 07:58:03;;;;;;;1999.90;999.90;;;16.90;99.90;;;;;;5053688;28;20032;-72
2023/04/29 08:00:29;;;;;;;1999.90;999.90;;;17.10;99.90;;;;;;5053766;28;20017;-79
2023/04/29 08:02:55;;;;;;;1999.90;999.90;;;17.10;99.90;;;;;;5053684;28;20314;-79
2023/04/29 08:05:22;;;;;;;1999.90;999.90;;;17.20;99.90;;;;;;5053451;28;20053;-79
2023/04/29 08:07:51;;;;;;;1999.90;999.90;;;17.20;99.90;;;;;;5052990;28;20024;-72
2023/04/29 08:10:17;;;;;;;1999.90;999.90;;;17.20;99.90;;;;;;5052429;28;20029;-72
2023/04/29 08:12:47;;;;;;;1999.90;999.90;;;17.40;99.90;;;;;;5053464;28;20074;-79
2023/04/29 08:15:12;;;;;;;1999.90;999.90;;;17.70;99.90;;;;;;5053575;28;20056;-72
2023/04/29 08:17:38;;;;;;;1999.90;999.90;;;17.80;99.90;;;;;;5035361;28;20087;-79
2023/04/29 08:20:04;;;;;;;1999.90;999.90;;;17.90;99.90;;;;;;5053120;28;20024;-72
2023/04/29 08:22:30;;;;;;;1999.90;999.90;;;17.80;99.90;;;;;;5053814;28;20344;-72
2023/04/29 08:24:56;;;;;;;1999.90;999.90;;;17.70;99.90;;;;;;5053032;28;20033;-72
2023/04/29 08:27:22;;;;;;;1999.90;999.90;;;17.70;99.90;;;;;;5053572;28;20020;-72
2023/04/29 08:29:47;;;;;;;1999.90;999.90;;;17.80;99.90;;;;;;5052986;28;20021;-79
2023/04/29 08:32:13;;;;;;;1999.90;999.90;;;17.90;99.90;;;;;;5052955;28;20472;-78
2023/04/29 08:34:40;;;;;;;1999.90;999.90;;;17.90;99.90;;;;;;5052942;28;20037;-73
2023/04/29 08:37:06;;;;;;;1999.90;999.90;;;17.90;99.90;;;;;;5052984;28;20396;-72
2023/04/29 08:39:32;;;;;;;1999.90;999.90;;;17.80;99.90;;;;;;5052836;28;20036;-72
2023/04/29 08:41:58;;;;;;;1999.90;999.90;;;18.00;99.90;;;;;;5052809;28;20033;-79
2023/04/29 08:44:28;;;;;;;1999.90;999.90;;;17.90;99.90;;;;;;5052997;28;20571;-79
2023/04/29 08:46:55;;;;;;;1999.90;999.90;;;18.00;99.90;;;;;;5052799;28;20443;-72
2023/04/29 08:49:20;;;;;;;1999.90;999.90;;;18.10;99.90;;;;;;5052418;28;20056;-72
2023/04/29 08:51:50;;;;;;;1999.90;999.90;;;18.20;99.90;;;;;;5052771;28;20045;-79
2023/04/29 08:54:16;;;;;;;1999.90;999.90;;;18.30;99.90;;;;;;5052877;28;20039;-72
2023/04/29 08:56:45;;;;;;;1999.90;999.90;;;18.40;99.90;;;;;;5052743;28;20025;-79
2023/04/29 08:59:16;;;;;;;1999.90;999.90;;;18.50;99.90;;;;;;5052775;28;20048;-72
2023/04/29 09:01:43;;;;;;;1999.90;999.90;;;18.60;99.90;;;;;;5052600;28;20025;-72
2023/04/29 09:04:28;;;;;;;1999.90;999.90;;;18.80;99.90;;;;;;5052844;28;20075;-79
2023/04/29 09:06:58;;;;;;;1999.90;999.90;;;18.80;99.90;;;;;;5052578;28;20021;-73
2023/04/29 09:09:24;;;;;;;1999.90;999.90;;;19.10;99.90;;;;;;5051853;28;20029;-73
2023/04/29 09:11:50;;;;;;;1999.90;999.90;;;19.10;99.90;;;;;;5052823;28;20097;-73
2023/04/29 09:14:17;;;;;;;1999.90;999.90;;;19.20;99.90;;;;;;5052417;28;20113;-73
2023/04/29 09:16:46;;;;;;;1999.90;999.90;;;19.30;99.90;;;;;;5052622;28;20090;-79
2023/04/29 09:19:31;;;;;;;1999.90;999.90;;;19.50;99.90;;;;;;5052447;28;20018;-79
2023/04/29 09:21:58;;;;;;;1999.90;999.90;;;19.80;99.90;;;;;;5052426;28;20363;-79
2023/04/29 09:24:28;;;;;;;1999.90;999.90;;;19.80;99.90;;;;;;5052417;28;20100;-73
2023/04/29 09:26:54;;;;;;;1999.90;999.90;;;20.20;99.90;;;;;;5052400;28;20025;-72
2023/04/29 09:29:20;;;;;;;1999.90;999.90;;;20.30;99.90;;;;;;5052646;28;20067;-79
2023/04/29 09:31:47;;;;;;;1999.90;999.90;;;20.50;99.90;;;;;;5052399;28;20029;-73
2023/04/29 09:34:13;;;;;;;1999.90;999.90;;;20.80;99.90;;;;;;5045540;28;20029;-73
2023/04/29 09:36:46;;;;;;;1999.90;999.90;;;21.20;99.90;;;;;;5052324;28;20059;-79
2023/04/29 09:39:17;;;;;;;1999.90;999.90;;;21.60;99.90;;;;;;5052174;28;20036;-73
2023/04/29 09:41:52;;;;;;;1999.90;999.90;;;21.50;99.90;;;;;;5052485;28;20071;-79
2023/04/29 09:44:23;;;;;;;1999.90;999.90;;;21.50;99.90;;;;;;5052315;28;20029;-73
2023/04/29 09:47:08;;;;;;;1999.90;999.90;;;21.30;99.90;;;;;;5052089;28;20151;-79
2023/04/29 09:49:39;;;;;;;1999.90;999.90;;;21.40;99.90;;;;;;5014491;28;20396;-73
2023/04/29 09:52:10;;;;;;;1999.90;999.90;;;21.30;99.90;;;;;;5032648;28;20060;-73
2023/04/29 09:54:37;;;;;;;1999.90;999.90;;;21.30;99.90;;;;;;5032380;28;20034;-79
2023/04/29 09:57:07;;;;;;;1999.90;999.90;;;21.70;99.90;;;;;;5032294;28;20105;-79
2023/04/29 09:59:35;;;;;;;1999.90;999.90;;;21.70;99.90;;;;;;5031265;28;20108;-80
2023/04/29 10:02:06;;;;;;;1999.90;999.90;;;21.70;99.90;;;;;;5015920;28;20034;-79
2023/04/29 10:04:35;;;;;;;1999.90;999.90;;;21.90;99.90;;;;;;5036237;28;20021;-73
2023/04/29 10:07:01;;;;;;;1999.90;999.90;;;21.90;99.90;;;;;;5035708;28;20021;-73
2023/04/29 10:09:27;;;;;;;1999.90;999.90;;;22.10;99.90;;;;;;5054364;28;20384;-80
2023/04/29 10:11:53;;;;;;;1999.90;999.90;;;22.50;99.90;;;;;;5054791;28;20025;-80
2023/04/29 10:14:26;;;;;;;1999.90;999.90;;;23.40;99.90;;;;;;5055475;28;20028;-80
2023/04/29 10:17:04;;;;;;;1999.90;999.90;;;25.10;99.90;;;;;;5055381;28;20060;-74
2023/04/29 10:19:41;;;;;;;1999.90;999.90;;;26.70;99.90;;;;;;5054637;28;20028;-73
2023/04/29 10:22:08;;;;;;;1999.90;999.90;;;27.20;99.90;;;;;;5055358;28;20487;-81
2023/04/29 10:24:37;;;;;;;1999.90;999.90;;;26.30;99.90;;;;;;5055505;28;20121;-73
2023/04/29 10:27:07;;;;;;;1999.90;999.90;;;24.50;99.90;;;;;;5055253;28;20029;-73
2023/04/29 10:29:35;;;;;;;1999.90;999.90;;;24.20;99.90;;;;;;5055629;28;20032;-73
2023/04/29 10:32:03;;;;;;;1999.90;999.90;;;24.20;99.90;;;;;;5055180;28;20040;-74
2023/04/29 10:34:32;;;;;;;1999.90;999.90;;;24.70;99.90;;;;;;5055249;28;20483;-80
2023/04/29 10:36:58;;;;;;;1999.90;999.90;;;25.20;99.90;;;;;;5055412;28;20492;-74
2023/04/29 10:39:38;;;;;;;1999.90;999.90;;;26.60;99.90;;;;;;5055101;28;20036;-81
2023/04/29 10:42:15;;;;;;;1999.90;999.90;;;27.30;99.90;;;;;;5055068;28;20404;-81
2023/04/29 10:45:18;;;;;;;1999.90;999.90;;;26.80;99.90;;;;;;5055067;28;20009;-74
2023/04/29 10:48:05;;;;;;;1999.90;999.90;;;27.20;99.90;;;;;;5054667;28;20056;-81
2023/04/29 10:50:34;;;;;;;1999.90;999.90;;;28.10;99.90;;;;;;5054801;28;20017;-81
2023/04/29 10:53:04;;;;;;;1999.90;999.90;;;28.50;99.90;;;;;;5055156;28;20495;-82
2023/04/29 10:55:36;;;;;;;1999.90;999.90;;;28.10;99.90;;;;;;5055118;28;20053;-75
2023/04/29 10:58:03;;;;;;;1999.90;999.90;;;27.90;99.90;;;;;;5054788;28;20017;-74
2023/04/29 11:00:32;;;;;;;1999.90;999.90;;;27.00;99.90;;;;;;5054594;28;20029;-81
2023/04/29 11:02:59;;;;;;;1999.90;999.90;;;26.80;99.90;;;;;;5054557;28;20031;-81
2023/04/29 11:05:33;;;;;;;1999.90;999.90;;;26.40;99.90;;;;;;5036988;28;20055;-81
2023/04/29 11:08:12;;;;;;;1999.90;999.90;;;25.40;99.90;;;;;;5036732;28;20075;-81
2023/04/29 11:10:42;;;;;;;1999.90;999.90;;;24.80;99.90;;;;;;5053944;28;20021;-74
2023/04/29 11:13:44;;;;;;;1999.90;999.90;;;25.30;99.90;;;;;;5053868;28;20017;-74
2023/04/29 11:16:10;;;;;;;1999.90;999.90;;;25.10;99.90;;;;;;5022818;28;20069;-80
2023/04/29 11:19:06;;;;;;;1999.90;999.90;;;24.70;99.90;;;;;;5054371;28;20021;-80
2023/04/29 11:21:35;;;;;;;1999.90;999.90;;;24.80;99.90;;;;;;5054413;28;20056;-74
2023/04/29 11:24:03;;;;;;;1999.90;999.90;;;24.80;99.90;;;;;;5054384;28;20091;-81
2023/04/29 11:26:29;;;;;;;1999.90;999.90;;;25.40;99.90;;;;;;5054311;28;20025;-81
2023/04/29 11:28:57;;;;;;;1999.90;999.90;;;26.00;99.90;;;;;;5054424;28;20078;-81
2023/04/29 11:31:28;;;;;;;1999.90;999.90;;;26.00;99.90;;;;;;5054331;28;20031;-81
2023/04/29 11:33:53;;;;;;;1999.90;999.90;;;26.30;99.90;;;;;;5054449;28;20119;-81
2023/04/29 11:36:19;;;;;;;1999.90;999.90;;;26.10;99.90;;;;;;5053961;28;20104;-74
2023/04/29 11:38:45;;;;;;;1999.90;999.90;;;25.70;99.90;;;;;;5053907;28;20388;-80
2023/04/29 11:41:11;;;;;;;1999.90;999.90;;;26.20;99.90;;;;;;5054059;28;20029;-81
2023/04/29 11:43:38;;;;;;;1999.90;999.90;;;26.40;99.90;;;;;;5054377;28;20383;-81
2023/04/29 11:46:14;;;;;;;1999.90;999.90;;;26.80;99.90;;;;;;5054009;28;20110;-74
2023/04/29 11:48:47;;;;;;;1999.90;999.90;;;26.80;99.90;;;;;;5053467;28;20025;-74
2023/04/29 11:51:13;;;;;;;1999.90;999.90;;;26.90;99.90;;;;;;5035730;28;20106;-81
2023/04/29 11:53:39;;;;;;;1999.90;999.90;;;27.00;99.90;;;;;;5054005;28;20391;-81
2023/04/29 11:56:05;;;;;;;1999.90;999.90;;;26.30;99.90;;;;;;5053916;28;20100;-74
2023/04/29 11:58:31;;;;;;;1999.90;999.90;;;25.60;99.90;;;;;;5053514;28;20063;-81
2023/04/29 12:01:01;;;;;;;1999.90;999.90;;;26.20;99.90;;;;;;5053338;28;20439;-74